Time;durP1;ratioP1;P1;durP2;ratioP2;P2;SDS_P1;SDS_P2;PMS_P1;PMS_P2;Temp;Humidity;BMP_temperature;BMP_pressure;BME280_temperature;BME280_humidity;BME280_pressure;Samples;Min_cycle;Max_cycle;Signal;HPM_P1;HPM_P2
2021/09/16 00:01:09;;;;;;;1.90;1.80;;;17.30;99.90;;;;;;4890839;29;20225;-94
2021/09/16 00:03:35;;;;;;;2.00;1.40;;;17.30;99.90;;;;;;4872856;29;20189;-93
2021/09/16 00:06:01;;;;;;;1.67;1.57;;;17.20;99.90;;;;;;4874833;29;20197;-94
2021/09/16 00:08:26;;;;;;;1.97;1.60;;;17.20;99.90;;;;;;4877046;29;20452;-93
2021/09/16 00:10:52;;;;;;;4.23;1.70;;;17.20;99.90;;;;;;4869024;29;20285;-93
2021/09/16 00:13:18;;;;;;;1.83;1.60;;;17.20;99.90;;;;;;4873743;29;20205;-93
2021/09/16 00:15:43;;;;;;;1.80;1.70;;;17.20;99.90;;;;;;4874928;29;20200;-93
2021/09/16 00:18:09;;;;;;;1.73;1.60;;;17.30;99.90;;;;;;4875797;29;20212;-94
2021/09/16 00:20:35;;;;;;;3.10;1.90;;;17.30;99.90;;;;;;4878709;29;20196;-94
2021/09/16 00:23:00;;;;;;;2.00;1.53;;;17.30;99.90;;;;;;4879972;29;20205;-96
2021/09/16 00:25:26;;;;;;;1.60;1.50;;;17.40;99.90;;;;;;4882480;29;20208;-94
2021/09/16 00:27:52;;;;;;;1.90;1.47;;;17.30;99.90;;;;;;4878209;29;20564;-94
2021/09/16 00:30:18;;;;;;;2.33;1.50;;;17.30;99.90;;;;;;4895663;29;20209;-93
2021/09/16 00:32:43;;;;;;;1.60;1.50;;;17.40;99.90;;;;;;4894430;29;20217;-93
2021/09/16 00:35:10;;;;;;;1.80;1.70;;;17.30;99.90;;;;;;4902380;29;20181;-94
2021/09/16 00:37:36;;;;;;;1.77;1.50;;;17.30;99.90;;;;;;4896579;29;20268;-93
2021/09/16 00:40:03;;;;;;;1.70;1.60;;;17.30;99.90;;;;;;4880922;29;20619;-93
2021/09/16 00:42:29;;;;;;;1.97;1.77;;;17.30;99.90;;;;;;4870632;29;20280;-96
2021/09/16 00:44:54;;;;;;;3.67;2.07;;;17.30;99.90;;;;;;4878490;29;20551;-96
2021/09/16 00:47:22;;;;;;;2.13;1.70;;;17.30;99.90;;;;;;4874737;29;20217;-94
2021/09/16 00:49:49;;;;;;;1.63;1.53;;;17.40;99.90;;;;;;4876146;29;20357;-94
2021/09/16 00:55:01;;;;;;;2.00;1.70;;;17.30;99.90;;;;;;4895866;29;20448;-95
2021/09/16 00:57:32;;;;;;;2.60;2.40;;;17.30;99.90;;;;;;4875527;29;20470;-95
2021/09/16 01:00:01;;;;;;;2.63;2.00;;;17.30;99.90;;;;;;4875311;29;20483;-94
2021/09/16 01:05:43;;;;;;;2.40;2.20;;;17.30;99.90;;;;;;4887456;29;20612;-94
2021/09/16 01:08:09;;;;;;;2.37;2.17;;;17.30;99.90;;;;;;4893307;29;20464;-93
2021/09/16 01:10:36;;;;;;;2.57;2.37;;;17.30;99.90;;;;;;4876379;29;20453;-92
2021/09/16 01:13:02;;;;;;;2.47;2.27;;;17.30;99.90;;;;;;4878609;29;20249;-93
2021/09/16 01:15:30;;;;;;;2.13;1.93;;;17.30;99.90;;;;;;4871185;29;20857;-93
2021/09/16 01:20:37;;;;;;;2.73;2.53;;;17.30;99.90;;;;;;4889915;29;20465;-93
2021/09/16 01:23:18;;;;;;;3.10;2.90;;;17.20;99.90;;;;;;4888782;29;20459;-93
2021/09/16 01:25:47;;;;;;;2.30;2.20;;;17.30;99.90;;;;;;4889518;29;20875;-91
2021/09/16 01:28:18;;;;;;;7.40;2.57;;;17.30;99.90;;;;;;4873619;29;20461;-94
2021/09/16 01:30:54;;;;;;;2.67;2.37;;;17.20;99.90;;;;;;4879389;29;20484;-93
2021/09/16 01:33:30;;;;;;;2.50;2.30;;;17.30;99.90;;;;;;4887045;29;20637;-93
2021/09/16 01:36:03;;;;;;;3.13;2.50;;;17.30;99.90;;;;;;4891874;29;20477;-93
2021/09/16 01:38:30;;;;;;;2.30;2.10;;;17.20;99.90;;;;;;4871733;29;20546;-95
2021/09/16 01:40:55;;;;;;;4.17;2.50;;;17.30;99.90;;;;;;4878274;29;20460;-95
2021/09/16 01:43:21;;;;;;;3.10;1.90;;;17.30;99.90;;;;;;4874181;29;20462;-92
2021/09/16 01:45:47;;;;;;;3.00;2.20;;;17.20;99.90;;;;;;4874473;29;20236;-93
2021/09/16 01:48:13;;;;;;;2.23;1.80;;;17.10;99.90;;;;;;4873595;29;20296;-93
2021/09/16 01:50:39;;;;;;;2.93;2.00;;;17.10;99.90;;;;;;4874836;29;20217;-94
2021/09/16 01:53:07;;;;;;;2.00;1.90;;;17.10;99.90;;;;;;4873415;29;20872;-95
2021/09/16 01:55:35;;;;;;;1.70;1.60;;;17.10;99.90;;;;;;4880357;29;20205;-94
2021/09/16 01:58:01;;;;;;;2.47;2.27;;;17.10;99.90;;;;;;4873869;29;20461;-94
2021/09/16 02:00:39;;;;;;;4.23;2.10;;;17.00;99.90;;;;;;4874877;29;20460;-93
2021/09/16 02:03:22;;;;;;;2.50;2.00;;;17.00;99.90;;;;;;4887856;29;20464;-94
2021/09/16 02:05:53;;;;;;;2.53;2.30;;;17.00;99.90;;;;;;4888911;29;20813;-93
2021/09/16 02:08:36;;;;;;;4.87;1.83;;;17.10;99.90;;;;;;4873720;29;20448;-92
2021/09/16 02:11:17;;;;;;;2.07;1.97;;;17.10;99.90;;;;;;4878594;29;20558;-93
2021/09/16 02:13:58;;;;;;;2.13;2.03;;;17.00;99.90;;;;;;4871313;29;20469;-93
2021/09/16 02:16:28;;;;;;;1.93;1.83;;;17.00;99.90;;;;;;4874814;29;20485;-94
2021/09/16 02:18:59;;;;;;;2.40;2.20;;;17.10;99.90;;;;;;4873711;29;20458;-93
2021/09/16 02:21:27;;;;;;;2.70;2.10;;;17.10;99.90;;;;;;4872420;29;20446;-93
2021/09/16 02:24:00;;;;;;;2.60;2.40;;;17.00;99.90;;;;;;4876043;29;21662;-92
2021/09/16 02:26:25;;;;;;;2.70;2.40;;;17.10;99.90;;;;;;4869240;29;20288;-93
2021/09/16 02:28:51;;;;;;;2.43;2.23;;;17.10;99.90;;;;;;4877344;29;20556;-93
2021/09/16 02:31:17;;;;;;;3.07;2.77;;;17.10;99.90;;;;;;4879599;29;20229;-92
2021/09/16 02:33:44;;;;;;;4.13;2.40;;;17.00;99.90;;;;;;4870100;29;20571;-94
2021/09/16 02:36:09;;;;;;;3.30;3.00;;;17.00;99.90;;;;;;4872869;29;20243;-93
2021/09/16 02:38:36;;;;;;;4.57;2.83;;;16.90;99.90;;;;;;4880110;29;20493;-94
2021/09/16 02:41:01;;;;;;;3.80;3.50;;;16.90;99.90;;;;;;4872036;29;20197;-92
2021/09/16 02:43:27;;;;;;;4.27;3.63;;;16.70;99.90;;;;;;4875041;29;20449;-93
2021/09/16 02:45:53;;;;;;;4.03;3.73;;;16.70;99.90;;;;;;4870348;29;20198;-93
2021/09/16 02:48:19;;;;;;;4.97;3.37;;;16.70;99.90;;;;;;4870615;29;20678;-92
2021/09/16 02:50:44;;;;;;;3.93;3.10;;;16.70;99.90;;;;;;4875694;29;21261;-93
2021/09/16 02:53:10;;;;;;;3.63;3.33;;;16.90;99.90;;;;;;4888030;29;20248;-94
2021/09/16 02:55:36;;;;;;;3.10;2.80;;;16.90;99.90;;;;;;4871075;29;20207;-93
2021/09/16 02:58:02;;;;;;;3.10;2.90;;;16.80;99.90;;;;;;4876293;29;20224;-93
2021/09/16 03:00:27;;;;;;;3.60;3.00;;;16.80;99.90;;;;;;4872539;29;20604;-94
2021/09/16 03:02:53;;;;;;;3.30;3.00;;;16.80;99.90;;;;;;4871203;29;20192;-94
2021/09/16 03:05:19;;;;;;;2.53;2.33;;;16.70;99.90;;;;;;4878587;29;20185;-94
2021/09/16 03:07:44;;;;;;;2.63;2.43;;;16.70;99.90;;;;;;4875357;29;20215;-92
2021/09/16 03:10:13;;;;;;;3.87;2.60;;;16.70;99.90;;;;;;4870913;29;20731;-93
2021/09/16 03:12:45;;;;;;;4.30;2.73;;;16.80;99.90;;;;;;4887912;29;20581;-94
2021/09/16 03:15:16;;;;;;;3.20;2.50;;;16.90;99.90;;;;;;4874560;29;20528;-94
2021/09/16 03:17:46;;;;;;;3.40;2.80;;;16.90;99.90;;;;;;4885893;29;20480;-95
2021/09/16 03:20:12;;;;;;;3.53;2.60;;;17.00;99.90;;;;;;4877842;29;20465;-96
2021/09/16 03:22:37;;;;;;;6.63;2.43;;;16.90;99.90;;;;;;4877281;29;20479;-94
2021/09/16 03:25:07;;;;;;;3.10;2.40;;;17.00;99.90;;;;;;4874387;29;20445;-96
2021/09/16 03:27:32;;;;;;;5.97;2.50;;;17.00;99.90;;;;;;4875668;29;20185;-93
2021/09/16 03:29:58;;;;;;;2.90;2.00;;;16.90;99.90;;;;;;4877810;29;20863;-93
2021/09/16 03:32:24;;;;;;;2.87;2.27;;;16.90;99.90;;;;;;4871784;29;20477;-92
2021/09/16 03:34:49;;;;;;;2.70;2.50;;;16.90;99.90;;;;;;4873718;29;20253;-94
2021/09/16 03:37:18;;;;;;;2.07;1.97;;;16.90;99.90;;;;;;4879312;29;20317;-95
2021/09/16 03:39:59;;;;;;;3.47;2.40;;;16.90;99.90;;;;;;4894312;29;20256;-94
2021/09/16 03:42:25;;;;;;;4.83;2.53;;;16.80;99.90;;;;;;4877083;29;21183;-96
2021/09/16 03:44:51;;;;;;;2.57;2.10;;;16.80;99.90;;;;;;4876327;29;20464;-95
2021/09/16 03:47:17;;;;;;;2.40;2.27;;;16.90;99.90;;;;;;4879092;29;20223;-95
2021/09/16 03:49:43;;;;;;;3.13;2.77;;;16.90;99.90;;;;;;4893180;29;20200;-95
2021/09/16 03:52:10;;;;;;;3.17;2.30;;;17.00;99.90;;;;;;4880536;29;20678;-95
2021/09/16 03:54:37;;;;;;;3.37;2.93;;;17.00;99.90;;;;;;4876112;29;20441;-94
2021/09/16 03:57:08;;;;;;;2.47;2.27;;;17.00;99.90;;;;;;4879173;29;20449;-94
2021/09/16 03:59:43;;;;;;;4.73;2.60;;;16.90;99.90;;;;;;4905549;29;20445;-94
2021/09/16 04:02:16;;;;;;;3.00;2.80;;;16.90;99.90;;;;;;4874526;29;20518;-93
2021/09/16 04:04:45;;;;;;;3.73;2.50;;;16.90;99.90;;;;;;4878984;29;20458;-92
2021/09/16 04:07:10;;;;;;;2.97;2.67;;;16.90;99.90;;;;;;4882768;29;20473;-94
2021/09/16 04:09:36;;;;;;;3.40;2.83;;;16.90;99.90;;;;;;4892113;29;20453;-95
2021/09/16 04:12:02;;;;;;;3.27;2.60;;;16.80;99.90;;;;;;4879024;29;20705;-93
2021/09/16 04:14:28;;;;;;;3.83;2.63;;;16.80;99.90;;;;;;4881049;29;20593;-93
2021/09/16 04:17:05;;;;;;;2.77;2.57;;;16.90;99.90;;;;;;4876243;29;20203;-93
2021/09/16 04:19:31;;;;;;;2.87;2.67;;;16.90;99.90;;;;;;4875887;29;20211;-93
2021/09/16 04:21:59;;;;;;;2.70;2.50;;;16.90;99.90;;;;;;4872905;29;20459;-92
2021/09/16 04:24:29;;;;;;;3.13;2.37;;;16.90;99.90;;;;;;4874555;29;20215;-92
2021/09/16 04:26:55;;;;;;;2.40;2.20;;;16.80;99.90;;;;;;4880557;29;20492;-93
2021/09/16 04:29:23;;;;;;;3.70;2.80;;;16.80;99.90;;;;;;4884785;29;20861;-93
2021/09/16 04:31:49;;;;;;;3.50;2.47;;;16.80;99.90;;;;;;4879786;29;20240;-94
2021/09/16 04:34:23;;;;;;;2.47;2.27;;;16.70;99.90;;;;;;4896580;29;20461;-93
2021/09/16 04:36:49;;;;;;;2.43;2.23;;;16.80;99.90;;;;;;4876053;29;20204;-94
2021/09/16 04:39:15;;;;;;;2.60;2.40;;;16.70;99.90;;;;;;4877325;29;20813;-94
2021/09/16 04:41:41;;;;;;;4.70;2.33;;;16.70;99.90;;;;;;4877952;29;20564;-95
2021/09/16 04:44:06;;;;;;;3.57;2.53;;;16.70;99.90;;;;;;4879432;29;20220;-93
2021/09/16 04:46:32;;;;;;;5.20;2.60;;;16.70;99.90;;;;;;4871003;29;20213;-94
2021/09/16 04:48:58;;;;;;;2.90;2.60;;;16.70;99.90;;;;;;4894713;29;20193;-93
2021/09/16 04:51:26;;;;;;;2.60;2.40;;;16.70;99.90;;;;;;4877420;29;20220;-93
2021/09/16 04:53:52;;;;;;;2.97;2.30;;;16.80;99.90;;;;;;4892695;29;20676;-92
2021/09/16 04:56:18;;;;;;;3.03;2.40;;;16.80;99.90;;;;;;4876111;29;20841;-92
2021/09/16 04:58:43;;;;;;;3.07;2.77;;;16.80;99.90;;;;;;4873102;29;20316;-92
2021/09/16 05:01:09;;;;;;;3.47;2.63;;;16.80;99.90;;;;;;4875922;29;20192;-91
2021/09/16 05:03:35;;;;;;;3.23;2.53;;;16.80;99.90;;;;;;4875432;29;20205;-92
2021/09/16 05:06:00;;;;;;;2.80;2.60;;;16.80;99.90;;;;;;4876550;29;20204;-92
2021/09/16 05:08:26;;;;;;;2.20;2.00;;;16.90;99.90;;;;;;4876882;29;20190;-92
2021/09/16 05:10:52;;;;;;;2.33;2.23;;;16.90;99.90;;;;;;4877515;29;20683;-93
2021/09/16 05:13:18;;;;;;;2.50;2.30;;;16.90;99.90;;;;;;4894971;29;20248;-93
2021/09/16 05:15:46;;;;;;;2.73;2.53;;;16.90;99.90;;;;;;4877321;29;20716;-90
2021/09/16 05:18:13;;;;;;;3.13;2.83;;;16.90;99.90;;;;;;4875333;29;20201;-92
2021/09/16 05:20:38;;;;;;;3.20;2.90;;;16.80;99.90;;;;;;4873246;29;20455;-93
2021/09/16 05:23:05;;;;;;;2.73;2.50;;;16.80;99.90;;;;;;4877206;29;20831;-93
2021/09/16 05:25:31;;;;;;;4.83;2.67;;;16.90;99.90;;;;;;4874275;29;20188;-91
2021/09/16 05:27:57;;;;;;;3.60;2.70;;;16.90;99.90;;;;;;4867559;29;21129;-94
2021/09/16 05:30:23;;;;;;;3.63;2.87;;;16.90;99.90;;;;;;4877086;29;20287;-93
2021/09/16 05:32:50;;;;;;;2.60;2.40;;;16.80;99.90;;;;;;4862719;29;20270;-93
2021/09/16 05:35:22;;;;;;;4.20;2.60;;;16.80;99.90;;;;;;4869035;29;20967;-91
2021/09/16 05:37:48;;;;;;;3.40;3.10;;;16.80;99.90;;;;;;4869149;29;20504;-93
2021/09/16 05:40:14;;;;;;;3.37;2.80;;;16.80;99.90;;;;;;4875888;29;20449;-94
2021/09/16 05:42:40;;;;;;;4.70;2.53;;;16.90;99.90;;;;;;4871569;29;20213;-92
2021/09/16 05:45:11;;;;;;;3.70;2.70;;;16.90;99.90;;;;;;4871985;29;21784;-94
2021/09/16 05:47:37;;;;;;;3.63;3.43;;;16.90;99.90;;;;;;4877747;29;21128;-93
2021/09/16 05:50:04;;;;;;;4.53;2.90;;;16.90;99.90;;;;;;4873876;29;20461;-93
2021/09/16 05:52:29;;;;;;;3.20;2.90;;;16.90;99.90;;;;;;4870610;29;20486;-92
2021/09/16 05:54:55;;;;;;;3.40;2.90;;;16.90;99.90;;;;;;4871763;29;20465;-92
2021/09/16 05:57:23;;;;;;;4.23;3.23;;;16.90;99.90;;;;;;4866196;29;20679;-92
2021/09/16 05:59:50;;;;;;;3.27;2.80;;;16.80;99.90;;;;;;4871312;29;20209;-92
2021/09/16 06:02:16;;;;;;;47.40;43.73;;;16.80;99.90;;;;;;4891765;29;20513;-92
2021/09/16 06:04:42;;;;;;;17.97;16.23;;;16.80;99.90;;;;;;4899535;29;21103;-93
2021/09/16 06:07:08;;;;;;;3.77;3.53;;;16.90;99.90;;;;;;4873848;29;20204;-93
2021/09/16 06:09:36;;;;;;;4.00;3.70;;;16.90;99.90;;;;;;4877641;29;20196;-94
2021/09/16 06:12:04;;;;;;;3.87;3.00;;;16.90;99.90;;;;;;4880910;29;20304;-90
2021/09/16 06:14:37;;;;;;;3.43;3.13;;;16.90;99.90;;;;;;4874026;29;21275;-94
2021/09/16 06:17:04;;;;;;;5.37;3.20;;;17.00;99.90;;;;;;4870775;29;20599;-91
2021/09/16 06:19:29;;;;;;;4.87;3.10;;;17.00;99.90;;;;;;4866336;29;20457;-94
2021/09/16 06:21:56;;;;;;;4.30;3.63;;;17.10;99.90;;;;;;4871203;29;20508;-93
2021/09/16 06:24:22;;;;;;;6.43;3.03;;;17.10;99.90;;;;;;4866515;29;20288;-89
2021/09/16 06:26:55;;;;;;;4.03;3.20;;;17.20;99.90;;;;;;4871766;29;20866;-90
2021/09/16 06:29:35;;;;;;;3.20;3.00;;;17.30;99.90;;;;;;4870831;29;20500;-88
2021/09/16 06:35:25;;;;;;;;;;;;;;;;;;;;;
2021/09/16 06:37:54;;;;;;;3.13;2.83;;;17.50;99.90;;;;;;4880787;29;20448;-91
2021/09/16 06:40:23;;;;;;;2.90;2.70;;;17.50;99.90;;;;;;4862763;29;20456;-90
2021/09/16 06:42:51;;;;;;;2.93;2.73;;;17.50;99.90;;;;;;4867774;29;20545;-91
2021/09/16 06:45:17;;;;;;;3.40;2.80;;;17.40;99.90;;;;;;4883454;29;20970;-91
2021/09/16 06:47:45;;;;;;;3.00;2.50;;;17.50;99.90;;;;;;4887018;29;20209;-90
2021/09/16 06:50:11;;;;;;;4.03;3.23;;;17.50;99.90;;;;;;4871722;29;20644;-91
2021/09/16 06:52:37;;;;;;;3.23;3.00;;;17.60;99.90;;;;;;4872878;29;20575;-93
2021/09/16 06:55:03;;;;;;;6.70;3.03;;;17.70;99.90;;;;;;4874371;29;20196;-91
2021/09/16 06:57:28;;;;;;;3.73;3.23;;;17.80;99.90;;;;;;4874130;29;20208;-94
2021/09/16 07:02:51;;;;;;;3.40;3.10;;;17.90;99.90;;;;;;4889434;29;20299;-92
2021/09/16 07:05:29;;;;;;;;;;;;;;;;;;;;;
2021/09/16 07:11:02;;;;;;;3.93;3.53;;;18.30;99.90;;;;;;4877246;29;20476;-92
2021/09/16 07:13:28;;;;;;;3.30;3.10;;;18.40;99.90;;;;;;4870312;29;20450;-93
2021/09/16 07:15:54;;;;;;;3.93;3.63;;;18.40;99.90;;;;;;4872911;29;20239;-92
2021/09/16 07:18:21;;;;;;;3.87;3.27;;;18.30;99.90;;;;;;4891755;29;20532;-95
2021/09/16 07:21:04;;;;;;;4.00;3.00;;;18.30;99.90;;;;;;4891716;29;20189;-94
2021/09/16 07:26:50;;;;;;;3.00;2.80;;;18.40;99.90;;;;;;4878505;29;20233;-95
2021/09/16 07:31:54;;;;;;;3.53;3.23;;;18.70;99.90;;;;;;4889484;29;20491;-95
2021/09/16 07:34:21;;;;;;;3.80;3.07;;;18.80;99.90;;;;;;4874426;29;20448;-92
2021/09/16 07:36:52;;;;;;;3.40;3.03;;;18.90;99.90;;;;;;4871030;29;20468;-92
2021/09/16 07:39:20;;;;;;;3.47;3.17;;;19.00;99.90;;;;;;4890893;29;20457;-91
2021/09/16 07:41:49;;;;;;;5.50;3.40;;;19.00;99.90;;;;;;4872882;29;20464;-94
2021/09/16 07:44:26;;;;;;;4.87;3.00;;;19.00;99.90;;;;;;4886041;29;20833;-94
2021/09/16 07:47:03;;;;;;;2.73;2.40;;;18.90;99.90;;;;;;4891421;29;20542;-96
2021/09/16 07:49:53;;;;;;;5.13;3.63;;;18.90;99.90;;;;;;4848999;29;20451;-92
2021/09/16 07:52:20;;;;;;;3.53;3.23;;;19.00;99.90;;;;;;4874861;29;20500;-93
2021/09/16 08:08:32;;;;;;;6.20;3.63;;;18.50;99.90;;;;;;4880661;29;20434;-93
2021/09/16 08:14:09;;;;;;;4.87;4.13;;;18.70;99.90;;;;;;4879308;29;20500;-92
2021/09/16 08:16:36;;;;;;;4.63;3.77;;;18.90;99.90;;;;;;4877851;29;20464;-89
2021/09/16 08:19:16;;;;;;;3.73;3.43;;;18.80;99.90;;;;;;4875719;29;21182;-92
2021/09/16 08:21:45;;;;;;;4.00;3.60;;;18.80;99.90;;;;;;4875823;29;20457;-95
2021/09/16 08:24:13;;;;;;;5.47;3.83;;;18.60;99.90;;;;;;4878585;29;20441;-95
2021/09/16 08:27:36;;;;;;;;;;;;;;;;;;;;;
2021/09/16 08:30:18;;;;;;;4.07;3.67;;;18.50;99.90;;;;;;4892641;29;20977;-94
2021/09/16 08:38:58;;;;;;;4.80;4.40;;;18.40;99.90;;;;;;4889785;29;20560;-93
2021/09/16 08:41:24;;;;;;;5.20;4.40;;;18.20;99.90;;;;;;4880944;29;20483;-94
2021/09/16 08:43:55;;;;;;;2.60;2.40;;;18.20;99.90;;;;;;4879500;29;20488;-95
2021/09/16 08:47:17;;;;;;;;;;;;;;;;;;;;;
2021/09/16 08:49:52;;;;;;;1.47;1.37;;;17.80;99.90;;;;;;4894205;29;21013;-93
2021/09/16 08:52:20;;;;;;;1.40;1.30;;;17.60;99.90;;;;;;4884231;29;20567;-94
2021/09/16 08:54:49;;;;;;;1.67;1.57;;;17.40;99.90;;;;;;4880714;29;20468;-94
2021/09/16 08:57:16;;;;;;;1.33;1.23;;;17.40;99.90;;;;;;4890574;29;20872;-93
2021/09/16 09:00:06;;;;;;;1.10;0.80;;;17.30;99.90;;;;;;4879410;29;20502;-92
2021/09/16 09:02:32;;;;;;;0.83;0.83;;;17.30;99.90;;;;;;4901849;29;20544;-93
2021/09/16 09:04:59;;;;;;;1.40;1.10;;;17.20;99.90;;;;;;4878476;29;20968;-95
2021/09/16 09:08:08;;;;;;;0.80;0.80;;;17.20;99.90;;;;;;4870923;29;20230;-93
2021/09/16 09:11:18;;;;;;;1.30;1.30;;;17.20;99.90;;;;;;4890617;29;20456;-94
2021/09/16 09:14:06;;;;;;;;;;;;;;;;;;;;;
2021/09/16 09:16:37;;;;;;;2.53;1.70;;;17.20;99.90;;;;;;4890618;29;20530;-94
2021/09/16 09:19:28;;;;;;;1.60;1.50;;;17.20;99.90;;;;;;4877852;29;20459;-95
2021/09/16 09:22:08;;;;;;;1.90;1.80;;;17.30;99.90;;;;;;4875293;29;20477;-93
2021/09/16 09:24:39;;;;;;;1.47;1.37;;;17.20;99.90;;;;;;4878257;29;20460;-93
2021/09/16 09:34:34;;;;;;;1.30;1.20;;;17.10;99.90;;;;;;4873070;29;20469;-92
2021/09/16 09:41:25;;;;;;;1.87;1.20;;;17.00;99.90;;;;;;4868881;29;20489;-91
2021/09/16 09:44:35;;;;;;;2.03;1.80;;;16.90;99.90;;;;;;4795303;29;20507;-91
2021/09/16 09:50:47;;;;;;;3.60;3.30;;;16.80;99.90;;;;;;4885812;29;20461;-90
2021/09/16 09:54:06;;;;;;;;;;;;;;;;;;;;;
2021/09/16 09:56:32;;;;;;;5.23;4.87;;;16.80;99.90;;;;;;4863326;29;20475;-92
2021/09/16 09:58:58;;;;;;;6.10;5.60;;;16.70;99.90;;;;;;4878909;29;20462;-92
2021/09/16 10:01:37;;;;;;;6.90;6.30;;;16.70;99.90;;;;;;4871714;29;20675;-93
2021/09/16 10:04:36;;;;;;;7.53;6.83;;;16.60;99.90;;;;;;4887600;29;20446;-94
2021/09/16 10:07:02;;;;;;;8.63;7.83;;;16.60;99.90;;;;;;4887997;29;20780;-91
2021/09/16 10:09:34;;;;;;;9.10;8.30;;;16.60;99.90;;;;;;4867813;29;20794;-91
2021/09/16 10:19:00;;;;;;;10.70;9.70;;;16.60;99.90;;;;;;4867007;29;20742;-95
2021/09/16 10:28:40;;;;;;;9.17;8.33;;;16.90;99.90;;;;;;4855203;29;20476;-94
2021/09/16 10:34:58;;;;;;;7.70;7.00;;;17.10;99.90;;;;;;4858998;29;21079;-92
2021/09/16 10:37:45;;;;;;;7.50;6.70;;;17.10;99.90;;;;;;4874625;29;20449;-93
2021/09/16 10:40:55;;;;;;;;;;;;;;;;;;;;;
2021/09/16 10:44:10;;;;;;;8.07;7.27;;;17.00;99.90;;;;;;4886192;29;20854;-94
2021/09/16 10:47:00;;;;;;;;;;;;;;;;;;;;;
2021/09/16 10:57:09;;;;;;;9.00;8.20;;;16.70;99.90;;;;;;4858180;29;20445;-96
2021/09/16 10:59:50;;;;;;;9.93;8.30;;;16.80;99.90;;;;;;4895593;29;20843;-94
2021/09/16 11:02:48;;;;;;;10.33;9.43;;;16.80;99.90;;;;;;4883148;29;20506;-96
2021/09/16 11:05:39;;;;;;;10.63;9.57;;;16.80;99.90;;;;;;4861361;29;20517;-96
2021/09/16 11:08:46;;;;;;;13.20;11.80;;;16.80;99.90;;;;;;4870699;29;20476;-94
2021/09/16 11:11:12;;;;;;;13.57;11.17;;;16.80;99.90;;;;;;4857637;29;21183;-91
2021/09/16 11:13:57;;;;;;;12.10;10.83;;;16.80;99.90;;;;;;4882788;29;20576;-91
2021/09/16 11:16:49;;;;;;;12.67;11.10;;;16.80;99.90;;;;;;4873327;29;20201;-91
2021/09/16 11:19:18;;;;;;;14.00;11.20;;;16.70;99.90;;;;;;4886949;29;20509;-91
2021/09/16 11:22:04;;;;;;;12.10;10.40;;;16.60;99.90;;;;;;4860913;29;20461;-91
2021/09/16 11:28:25;;;;;;;12.00;10.70;;;16.70;99.90;;;;;;4819394;29;20495;-91
2021/09/16 11:30:51;;;;;;;12.77;11.47;;;16.80;99.90;;;;;;4878021;29;20448;-91
2021/09/16 11:33:20;;;;;;;15.60;13.90;;;16.60;99.90;;;;;;4865579;29;21086;-92
2021/09/16 11:35:50;;;;;;;15.20;13.70;;;16.50;99.90;;;;;;4870168;29;20216;-92
2021/09/16 11:38:17;;;;;;;16.03;14.20;;;16.50;99.90;;;;;;4866957;29;20820;-93
2021/09/16 11:40:51;;;;;;;15.83;14.27;;;16.40;99.90;;;;;;4878953;29;20543;-92
2021/09/16 11:43:18;;;;;;;17.37;14.80;;;16.40;99.90;;;;;;4867028;29;20872;-90
2021/09/16 11:45:48;;;;;;;18.20;15.20;;;16.20;99.90;;;;;;4881919;29;20220;-91
2021/09/16 11:48:25;;;;;;;19.70;16.10;;;16.20;99.90;;;;;;4883760;29;20465;-92
2021/09/16 11:51:24;;;;;;;17.53;14.97;;;16.30;99.90;;;;;;4870494;29;20441;-92
2021/09/16 11:54:39;;;;;;;;;;;;;;;;;;;;;
2021/09/16 11:57:02;;;;;;;18.97;15.07;;;16.60;99.90;;;;;;4885176;29;20907;-89
2021/09/16 12:04:08;;;;;;;;;;;;;;;;;;;;;
2021/09/16 12:06:34;;;;;;;18.57;13.63;;;16.60;99.90;;;;;;4854648;29;20460;-91
2021/09/16 12:09:23;;;;;;;20.90;16.03;;;16.50;99.90;;;;;;4867797;29;20453;-92
2021/09/16 12:18:53;;;;;;;21.67;16.40;;;16.60;99.90;;;;;;4893041;29;20520;-95
2021/09/16 12:21:27;;;;;;;18.00;14.23;;;16.50;99.90;;;;;;4871056;29;20476;-91
2021/09/16 12:24:14;;;;;;;17.17;15.00;;;16.50;99.90;;;;;;4905004;29;20464;-90
2021/09/16 12:26:47;;;;;;;21.93;15.60;;;16.50;99.90;;;;;;4872268;29;20810;-92
2021/09/16 12:29:39;;;;;;;28.53;16.93;;;16.50;99.90;;;;;;4869693;29;20457;-92
2021/09/16 12:34:44;;;;;;;20.20;15.53;;;16.70;99.90;;;;;;4886543;29;20483;-91
2021/09/16 12:40:40;;;;;;;19.47;14.13;;;17.00;99.90;;;;;;4882870;29;20475;-92
2021/09/16 12:43:14;;;;;;;17.80;13.90;;;17.30;99.90;;;;;;4891866;29;20449;-94
2021/09/16 12:46:01;;;;;;;;;;;;;;;;;;;;;
2021/09/16 12:52:42;;;;;;;;;;;;;;;;;;;;;
2021/09/16 12:55:12;;;;;;;14.60;13.20;;;18.40;99.90;;;;;;4886743;29;20494;-92
2021/09/16 12:57:42;;;;;;;16.17;14.40;;;18.60;99.90;;;;;;4875709;29;20559;-91
2021/09/16 13:00:15;;;;;;;19.00;15.80;;;18.10;99.90;;;;;;4877372;29;20776;-92
2021/09/16 13:02:45;;;;;;;19.10;16.67;;;17.70;99.90;;;;;;4869934;29;20465;-95
2021/09/16 13:05:32;;;;;;;18.30;15.10;;;17.70;99.90;;;;;;4884319;29;20457;-93
2021/09/16 13:08:25;;;;;;;16.93;14.80;;;17.70;99.90;;;;;;4871073;29;20803;-93
2021/09/16 13:11:11;;;;;;;19.43;17.47;;;17.80;99.90;;;;;;4888028;29;20453;-92
2021/09/16 13:13:40;;;;;;;19.93;17.27;;;17.90;99.90;;;;;;4895955;29;20856;-94
2021/09/16 13:16:46;;;;;;;21.77;17.37;;;17.60;99.90;;;;;;4888683;29;20437;-94
2021/09/16 13:19:13;;;;;;;20.40;17.03;;;17.60;99.90;;;;;;4870206;29;20453;-95
2021/09/16 13:21:39;;;;;;;18.77;16.87;;;17.80;99.90;;;;;;4884932;29;20472;-91
2021/09/16 13:24:24;;;;;;;17.20;15.50;;;17.90;99.90;;;;;;4872410;29;20437;-92
2021/09/16 13:26:50;;;;;;;18.00;16.00;;;18.10;99.90;;;;;;4886030;29;20209;-89
2021/09/16 13:29:17;;;;;;;18.87;16.27;;;18.50;99.90;;;;;;4871510;29;20484;-93
2021/09/16 13:31:45;;;;;;;19.53;15.10;;;18.70;99.90;;;;;;4903728;29;20227;-90
2021/09/16 13:34:11;;;;;;;20.03;17.80;;;18.60;99.90;;;;;;4868159;29;20475;-91
2021/09/16 13:36:37;;;;;;;23.63;18.50;;;18.20;99.90;;;;;;4870654;29;21264;-91
2021/09/16 13:39:04;;;;;;;24.97;20.37;;;17.80;99.90;;;;;;4885545;29;20316;-91
2021/09/16 13:41:31;;;;;;;24.30;19.90;;;17.90;99.90;;;;;;4887778;29;20463;-91
2021/09/16 13:43:59;;;;;;;25.13;20.17;;;17.70;99.90;;;;;;4870592;29;20461;-92
2021/09/16 13:46:25;;;;;;;24.50;20.63;;;17.50;99.90;;;;;;4889337;29;20456;-93
2021/09/16 13:49:09;;;;;;;22.10;18.47;;;17.50;99.90;;;;;;4869123;29;20449;-93
2021/09/16 13:51:59;;;;;;;23.07;18.17;;;17.60;99.90;;;;;;4897691;29;20235;-96
2021/09/16 13:54:24;;;;;;;27.03;19.87;;;17.60;99.90;;;;;;4891091;29;20452;-95
2021/09/16 13:56:50;;;;;;;26.00;19.63;;;17.50;99.90;;;;;;4873709;29;20453;-91
2021/09/16 13:59:16;;;;;;;23.30;19.50;;;17.60;99.90;;;;;;4891799;29;20177;-93
2021/09/16 14:01:42;;;;;;;23.43;19.13;;;17.30;99.90;;;;;;4891831;29;20204;-94
2021/09/16 14:04:08;;;;;;;26.20;21.20;;;17.30;99.90;;;;;;4886236;29;20612;-94
2021/09/16 14:06:33;;;;;;;28.57;19.93;;;17.30;99.90;;;;;;4859193;29;20375;-93
2021/09/16 14:08:59;;;;;;;21.97;18.67;;;17.40;99.90;;;;;;4870775;29;20193;-93
2021/09/16 14:11:31;;;;;;;21.83;18.40;;;17.40;99.90;;;;;;4900032;29;20681;-94
2021/09/16 14:14:03;;;;;;;24.80;20.50;;;17.40;99.90;;;;;;4868866;29;20200;-95
2021/09/16 14:16:29;;;;;;;23.40;19.10;;;17.50;99.90;;;;;;4895479;29;20453;-93
2021/09/16 14:19:00;;;;;;;24.77;20.10;;;17.50;99.90;;;;;;4870067;29;20469;-94
2021/09/16 14:21:40;;;;;;;24.90;20.63;;;17.40;99.90;;;;;;4882650;29;20615;-94
2021/09/16 14:24:07;;;;;;;21.13;18.83;;;17.20;99.90;;;;;;4863034;29;20457;-92
2021/09/16 14:26:35;;;;;;;22.83;19.73;;;17.20;99.90;;;;;;4863022;29;20462;-90
2021/09/16 14:29:01;;;;;;;23.27;19.10;;;17.30;99.90;;;;;;4868122;29;20470;-92
2021/09/16 14:31:27;;;;;;;21.73;18.53;;;17.50;99.90;;;;;;4866661;29;20584;-91
2021/09/16 14:34:12;;;;;;;20.70;18.50;;;17.50;99.90;;;;;;4882333;29;20458;-93
2021/09/16 14:36:44;;;;;;;21.37;18.07;;;17.50;99.90;;;;;;4859722;29;20232;-94
2021/09/16 14:39:22;;;;;;;21.40;19.10;;;17.40;99.90;;;;;;4876152;29;20457;-96
2021/09/16 14:41:47;;;;;;;21.33;19.00;;;17.30;99.90;;;;;;4860156;29;20967;-96
2021/09/16 14:44:13;;;;;;;21.37;19.10;;;17.40;99.90;;;;;;4872229;29;20505;-96
2021/09/16 14:46:39;;;;;;;22.27;19.97;;;17.50;99.90;;;;;;4877920;29;20200;-93
2021/09/16 14:49:07;;;;;;;20.27;18.17;;;17.70;99.90;;;;;;4913331;29;20205;-96
2021/09/16 14:51:34;;;;;;;19.97;17.87;;;17.70;99.90;;;;;;4893668;29;20225;-95
2021/09/16 14:54:00;;;;;;;23.03;17.50;;;17.60;99.90;;;;;;4885264;29;20488;-94
2021/09/16 14:56:26;;;;;;;23.07;18.33;;;17.40;99.90;;;;;;4880427;29;20462;-92
2021/09/16 14:58:52;;;;;;;19.93;17.90;;;17.40;99.90;;;;;;4907427;29;20203;-92
2021/09/16 15:01:18;;;;;;;21.17;16.97;;;17.50;99.90;;;;;;4868023;29;20465;-93
2021/09/16 15:03:43;;;;;;;21.00;17.73;;;17.60;99.90;;;;;;4873082;29;20212;-96
2021/09/16 15:06:10;;;;;;;17.47;15.67;;;17.90;99.90;;;;;;4891548;29;20188;-95
2021/09/16 15:08:37;;;;;;;17.40;15.53;;;18.20;99.90;;;;;;4890022;29;20243;-96
2021/09/16 15:11:06;;;;;;;16.30;14.60;;;18.90;99.90;;;;;;4877920;29;20506;-96